Brownfield, ME

4:21 PM EST on March 03, 2015 (GMT -0500)
Portland International | Change Station
CLOSE
Current Station
Airport
Location: Portland,
Elevation: 62 ft
Nearby Weather Stations
Active Advisory: Winter Weather Advisory

Elev 62 ft 43.64 °N, 70.30 °W | Updated 30 minutes ago

Partly Cloudy
Partly Cloudy
28 °F
Feels Like 18 °F
N
12
Wind Variable Wind from South

Today
High -- | Low -- °F
--% Chance of Precip.
Yesterday
High -- | Low -- °F
Precip. -- in
6:17 AM 5:34 PM
Waxing Gibbous, 97% visible
Pressure 30.21 in
Visibility 10.0 miles
Clouds Scattered Clouds 8000 ft
Overcast 15000 ft
Windchill 18 °F
Dew Point 7 °F
Humidity 41%
Rainfall 0.00 in
Snow Depth Not available.
UV 0 out of 12
Pollen .30 out of 12
Air Quality Not available.
Flu Activity Not available.
METAR KPWM 032051Z 18010KT 10SM SCT080 OVC150 M02/M14 A3021 RMK AO2 SLP230 T10221139 56035

More Conditions Fewer Conditions

Pressure 30.21 in
Visibility 10.0 miles
Clouds Scattered Clouds 8000 ft
Overcast 15000 ft
Windchill 18 °F
Dew Point 7 °F
Humidity 41%
Rainfall 0.00 in
Snow Depth Not available.
UV 0 out of 12
Pollen .30 out of 12
Air Quality Not available.
Flu Activity Not available.
METAR KPWM 032051Z 18010KT 10SM SCT080 OVC150 M02/M14 A3021 RMK AO2 SLP230 T10221139 56035

More Conditions Fewer Conditions

10-Day Weather Forecast

Almanac

Astronomy

Mar. 03, 2015 Rise Set
Actual Time
Civil Twilight
Nautical Twilight
Astronomical Twilight
Moon
Length of Visible Light
Length of Day
Tomorrow will be .
, % of the Moon is Illuminated

Today's Extremes

State Highs State Lows

Community

WunderPhotos

Upload Photos

1,802,261 photos uploaded!

WunderBlogs® & News

Nearby

Air Quality

  Air Quality AQ Index Pollutant
Not available.

Snow Depth

Station Depth Elevation

Earthquake Activity

City Distance Mag. Time & Date
Minimum magnitude displayed is 2.5.

Coastal Water Temperatures

Place Temperature

Nearby Weather Stations

Winter Weather Advisory
Statement as of 3:06 PM EST on March 03, 2015

... Winter Weather Advisory remains in effect from 7 PM this
evening to 7 am EST Wednesday...

* hazard types..snow.

* Accumulations... snow accumulation of 3 to 5 inches.

* Timing... snow will begin this evening and end by sunrise on
Wednesday.

* Impacts... roads will become snow covered and slippery.

* Winds... south 5 to 15 mph with gusts up to 25 mph.

* Temperatures... in the lower 20s.

Precautionary/preparedness actions...

A Winter Weather Advisory for snow means that periods of snow
will cause primarily travel difficulties. Be prepared for snow
covered roads and limited visibilities... and use caution while
driving.